sensor_id;sensor_type;location;lat;lon;timestamp;P1;durP1;ratioP1;P2;durP2;ratioP2
69991;SDS011;57332;51.320;-0.580;2023-07-22T00:00:58;3.40;;;1.60;;
69991;SDS011;57332;51.320;-0.580;2023-07-22T00:03:25;3.95;;;1.90;;
69991;SDS011;57332;51.320;-0.580;2023-07-22T00:08:32;5.75;;;1.80;;
69991;SDS011;57332;51.320;-0.580;2023-07-22T00:10:59;3.67;;;1.70;;
69991;SDS011;57332;51.320;-0.580;2023-07-22T00:13:26;3.97;;;1.50;;
69991;SDS011;57332;51.320;-0.580;2023-07-22T00:15:53;4.43;;;1.80;;
69991;SDS011;57332;51.320;-0.580;2023-07-22T00:18:20;4.78;;;1.90;;
69991;SDS011;57332;51.320;-0.580;2023-07-22T00:20:47;2.63;;;1.70;;
69991;SDS011;57332;51.320;-0.580;2023-07-22T00:23:15;3.35;;;1.58;;
69991;SDS011;57332;51.320;-0.580;2023-07-22T00:25:42;3.58;;;1.85;;
69991;SDS011;57332;51.320;-0.580;2023-07-22T00:28:08;3.05;;;1.67;;
69991;SDS011;57332;51.320;-0.580;2023-07-22T00:30:36;3.13;;;2.00;;
69991;SDS011;57332;51.320;-0.580;2023-07-22T00:33:03;5.35;;;1.90;;
69991;SDS011;57332;51.320;-0.580;2023-07-22T00:35:30;3.38;;;1.63;;
69991;SDS011;57332;51.320;-0.580;2023-07-22T00:37:59;4.50;;;1.70;;
69991;SDS011;57332;51.320;-0.580;2023-07-22T00:40:25;2.85;;;1.65;;
69991;SDS011;57332;51.320;-0.580;2023-07-22T00:42:52;2.80;;;1.67;;
69991;SDS011;57332;51.320;-0.580;2023-07-22T00:45:19;4.53;;;1.67;;
69991;SDS011;57332;51.320;-0.580;2023-07-22T00:47:46;4.60;;;1.90;;
69991;SDS011;57332;51.320;-0.580;2023-07-22T00:50:13;3.72;;;1.90;;
69991;SDS011;57332;51.320;-0.580;2023-07-22T00:52:40;4.68;;;1.65;;
69991;SDS011;57332;51.320;-0.580;2023-07-22T00:55:07;5.78;;;1.60;;
69991;SDS011;57332;51.320;-0.580;2023-07-22T00:57:35;3.70;;;1.60;;
69991;SDS011;57332;51.320;-0.580;2023-07-22T01:00:03;5.63;;;2.08;;
69991;SDS011;57332;51.320;-0.580;2023-07-22T01:02:32;5.53;;;1.60;;
69991;SDS011;57332;51.320;-0.580;2023-07-22T01:04:59;3.65;;;1.40;;
69991;SDS011;57332;51.320;-0.580;2023-07-22T01:07:26;4.78;;;1.73;;
69991;SDS011;57332;51.320;-0.580;2023-07-22T01:09:57;3.58;;;1.60;;
69991;SDS011;57332;51.320;-0.580;2023-07-22T01:12:25;5.40;;;2.05;;
69991;SDS011;57332;51.320;-0.580;2023-07-22T01:14:51;4.15;;;1.65;;
69991;SDS011;57332;51.320;-0.580;2023-07-22T01:17:19;4.95;;;1.98;;
69991;SDS011;57332;51.320;-0.580;2023-07-22T01:19:46;3.22;;;1.60;;
69991;SDS011;57332;51.320;-0.580;2023-07-22T01:22:13;2.45;;;1.60;;
69991;SDS011;57332;51.320;-0.580;2023-07-22T01:24:40;5.10;;;1.85;;
69991;SDS011;57332;51.320;-0.580;2023-07-22T01:27:08;4.40;;;1.80;;
69991;SDS011;57332;51.320;-0.580;2023-07-22T01:29:36;4.78;;;1.60;;
69991;SDS011;57332;51.320;-0.580;2023-07-22T01:32:03;4.97;;;2.10;;
69991;SDS011;57332;51.320;-0.580;2023-07-22T01:34:32;4.00;;;1.75;;
69991;SDS011;57332;51.320;-0.580;2023-07-22T01:36:59;4.75;;;1.95;;
69991;SDS011;57332;51.320;-0.580;2023-07-22T01:39:26;5.72;;;1.60;;
69991;SDS011;57332;51.320;-0.580;2023-07-22T01:41:54;5.85;;;1.98;;
69991;SDS011;57332;51.320;-0.580;2023-07-22T01:44:21;4.78;;;1.73;;
69991;SDS011;57332;51.320;-0.580;2023-07-22T01:46:48;2.92;;;1.58;;
69991;SDS011;57332;51.320;-0.580;2023-07-22T01:49:15;3.45;;;1.60;;
69991;SDS011;57332;51.320;-0.580;2023-07-22T01:51:41;3.17;;;1.63;;
69991;SDS011;57332;51.320;-0.580;2023-07-22T01:54:08;4.32;;;1.35;;
69991;SDS011;57332;51.320;-0.580;2023-07-22T01:56:36;2.92;;;1.80;;
69991;SDS011;57332;51.320;-0.580;2023-07-22T01:59:03;3.05;;;1.45;;
69991;SDS011;57332;51.320;-0.580;2023-07-22T02:01:31;3.60;;;2.08;;
69991;SDS011;57332;51.320;-0.580;2023-07-22T02:03:58;4.85;;;1.73;;
69991;SDS011;57332;51.320;-0.580;2023-07-22T02:06:26;4.65;;;1.83;;
69991;SDS011;57332;51.320;-0.580;2023-07-22T02:08:54;3.78;;;1.58;;
69991;SDS011;57332;51.320;-0.580;2023-07-22T02:11:21;3.33;;;1.45;;
69991;SDS011;57332;51.320;-0.580;2023-07-22T02:13:48;5.18;;;1.80;;
69991;SDS011;57332;51.320;-0.580;2023-07-22T02:16:15;3.60;;;1.75;;
69991;SDS011;57332;51.320;-0.580;2023-07-22T02:18:43;3.63;;;1.73;;
69991;SDS011;57332;51.320;-0.580;2023-07-22T02:21:10;4.45;;;1.70;;
69991;SDS011;57332;51.320;-0.580;2023-07-22T02:23:38;4.85;;;2.65;;
69991;SDS011;57332;51.320;-0.580;2023-07-22T02:26:05;2.85;;;1.52;;
69991;SDS011;57332;51.320;-0.580;2023-07-22T02:28:32;6.28;;;2.22;;
69991;SDS011;57332;51.320;-0.580;2023-07-22T02:31:01;3.60;;;1.65;;
69991;SDS011;57332;51.320;-0.580;2023-07-22T02:33:29;4.65;;;1.67;;
69991;SDS011;57332;51.320;-0.580;2023-07-22T02:35:55;3.53;;;1.55;;
69991;SDS011;57332;51.320;-0.580;2023-07-22T02:38:22;4.43;;;1.80;;
69991;SDS011;57332;51.320;-0.580;2023-07-22T02:40:49;4.80;;;1.75;;
69991;SDS011;57332;51.320;-0.580;2023-07-22T02:43:16;4.10;;;1.80;;
69991;SDS011;57332;51.320;-0.580;2023-07-22T02:45:43;5.70;;;1.98;;
69991;SDS011;57332;51.320;-0.580;2023-07-22T02:48:11;3.22;;;1.70;;
69991;SDS011;57332;51.320;-0.580;2023-07-22T02:50:37;4.63;;;1.88;;
69991;SDS011;57332;51.320;-0.580;2023-07-22T02:53:04;5.57;;;1.92;;
69991;SDS011;57332;51.320;-0.580;2023-07-22T02:55:32;4.15;;;1.70;;
69991;SDS011;57332;51.320;-0.580;2023-07-22T02:57:59;3.53;;;1.80;;
69991;SDS011;57332;51.320;-0.580;2023-07-22T03:00:26;5.45;;;1.75;;
69991;SDS011;57332;51.320;-0.580;2023-07-22T03:02:53;4.07;;;1.88;;
69991;SDS011;57332;51.320;-0.580;2023-07-22T03:05:20;5.22;;;1.85;;
69991;SDS011;57332;51.320;-0.580;2023-07-22T03:07:48;5.50;;;1.90;;
69991;SDS011;57332;51.320;-0.580;2023-07-22T03:10:15;5.03;;;2.20;;
69991;SDS011;57332;51.320;-0.580;2023-07-22T03:12:41;5.35;;;1.80;;
69991;SDS011;57332;51.320;-0.580;2023-07-22T03:15:08;4.07;;;1.70;;
69991;SDS011;57332;51.320;-0.580;2023-07-22T03:17:36;5.65;;;1.80;;
69991;SDS011;57332;51.320;-0.580;2023-07-22T03:20:04;3.35;;;1.60;;
69991;SDS011;57332;51.320;-0.580;2023-07-22T03:22:35;3.25;;;1.45;;
69991;SDS011;57332;51.320;-0.580;2023-07-22T03:25:02;3.17;;;1.65;;
69991;SDS011;57332;51.320;-0.580;2023-07-22T03:27:31;5.85;;;1.83;;
69991;SDS011;57332;51.320;-0.580;2023-07-22T03:29:58;3.35;;;1.65;;
69991;SDS011;57332;51.320;-0.580;2023-07-22T03:32:25;4.13;;;1.60;;
69991;SDS011;57332;51.320;-0.580;2023-07-22T03:34:51;3.70;;;1.38;;
69991;SDS011;57332;51.320;-0.580;2023-07-22T03:37:18;3.78;;;1.63;;
69991;SDS011;57332;51.320;-0.580;2023-07-22T03:39:47;3.72;;;1.65;;
69991;SDS011;57332;51.320;-0.580;2023-07-22T03:42:13;5.00;;;1.80;;
69991;SDS011;57332;51.320;-0.580;2023-07-22T03:44:40;2.72;;;1.75;;
69991;SDS011;57332;51.320;-0.580;2023-07-22T03:47:07;3.08;;;1.60;;
69991;SDS011;57332;51.320;-0.580;2023-07-22T03:49:34;2.92;;;1.40;;
69991;SDS011;57332;51.320;-0.580;2023-07-22T03:52:01;3.08;;;1.60;;
69991;SDS011;57332;51.320;-0.580;2023-07-22T03:54:28;2.90;;;1.55;;
69991;SDS011;57332;51.320;-0.580;2023-07-22T03:56:55;6.75;;;1.70;;
69991;SDS011;57332;51.320;-0.580;2023-07-22T03:59:22;3.65;;;1.75;;
69991;SDS011;57332;51.320;-0.580;2023-07-22T04:01:49;3.20;;;1.38;;
69991;SDS011;57332;51.320;-0.580;2023-07-22T04:04:16;3.75;;;1.67;;
69991;SDS011;57332;51.320;-0.580;2023-07-22T04:06:43;3.75;;;1.80;;
69991;SDS011;57332;51.320;-0.580;2023-07-22T04:09:10;5.30;;;2.13;;
69991;SDS011;57332;51.320;-0.580;2023-07-22T04:11:37;5.50;;;1.90;;
69991;SDS011;57332;51.320;-0.580;2023-07-22T04:14:04;4.25;;;1.92;;
69991;SDS011;57332;51.320;-0.580;2023-07-22T04:16:31;3.97;;;1.80;;
69991;SDS011;57332;51.320;-0.580;2023-07-22T04:18:58;3.85;;;1.95;;
69991;SDS011;57332;51.320;-0.580;2023-07-22T04:21:25;4.18;;;1.77;;
69991;SDS011;57332;51.320;-0.580;2023-07-22T04:23:52;4.93;;;1.63;;
69991;SDS011;57332;51.320;-0.580;2023-07-22T04:26:20;3.20;;;1.63;;
69991;SDS011;57332;51.320;-0.580;2023-07-22T04:28:47;3.20;;;2.10;;
69991;SDS011;57332;51.320;-0.580;2023-07-22T04:31:13;3.42;;;1.60;;
69991;SDS011;57332;51.320;-0.580;2023-07-22T04:33:40;4.18;;;1.50;;
69991;SDS011;57332;51.320;-0.580;2023-07-22T04:36:08;3.67;;;1.50;;
69991;SDS011;57332;51.320;-0.580;2023-07-22T04:38:35;3.17;;;1.52;;
69991;SDS011;57332;51.320;-0.580;2023-07-22T04:41:02;2.92;;;1.73;;
69991;SDS011;57332;51.320;-0.580;2023-07-22T04:43:30;4.05;;;1.38;;
69991;SDS011;57332;51.320;-0.580;2023-07-22T04:45:57;4.25;;;1.45;;
69991;SDS011;57332;51.320;-0.580;2023-07-22T04:48:24;4.60;;;1.77;;
69991;SDS011;57332;51.320;-0.580;2023-07-22T04:50:51;4.13;;;1.50;;
69991;SDS011;57332;51.320;-0.580;2023-07-22T04:53:18;4.80;;;1.70;;
69991;SDS011;57332;51.320;-0.580;2023-07-22T04:55:45;4.82;;;1.38;;
69991;SDS011;57332;51.320;-0.580;2023-07-22T04:58:12;3.65;;;1.80;;
69991;SDS011;57332;51.320;-0.580;2023-07-22T05:00:39;3.00;;;1.35;;
69991;SDS011;57332;51.320;-0.580;2023-07-22T05:03:06;3.72;;;1.60;;
69991;SDS011;57332;51.320;-0.580;2023-07-22T05:05:33;3.95;;;1.63;;
69991;SDS011;57332;51.320;-0.580;2023-07-22T05:08:00;3.70;;;1.42;;
69991;SDS011;57332;51.320;-0.580;2023-07-22T05:10:28;4.30;;;1.70;;
69991;SDS011;57332;51.320;-0.580;2023-07-22T05:12:55;4.63;;;1.60;;
69991;SDS011;57332;51.320;-0.580;2023-07-22T05:15:23;3.63;;;1.73;;
69991;SDS011;57332;51.320;-0.580;2023-07-22T05:17:51;4.65;;;1.77;;
69991;SDS011;57332;51.320;-0.580;2023-07-22T05:20:18;3.08;;;1.60;;
69991;SDS011;57332;51.320;-0.580;2023-07-22T05:22:45;5.28;;;2.05;;
69991;SDS011;57332;51.320;-0.580;2023-07-22T05:25:12;3.45;;;1.65;;
69991;SDS011;57332;51.320;-0.580;2023-07-22T05:27:39;3.95;;;1.80;;
69991;SDS011;57332;51.320;-0.580;2023-07-22T05:30:06;4.85;;;1.75;;
69991;SDS011;57332;51.320;-0.580;2023-07-22T05:32:45;5.53;;;2.42;;
69991;SDS011;57332;51.320;-0.580;2023-07-22T05:35:12;3.67;;;1.52;;
69991;SDS011;57332;51.320;-0.580;2023-07-22T05:37:39;3.90;;;1.50;;
69991;SDS011;57332;51.320;-0.580;2023-07-22T05:40:06;2.90;;;1.38;;
69991;SDS011;57332;51.320;-0.580;2023-07-22T05:42:34;4.75;;;1.80;;
69991;SDS011;57332;51.320;-0.580;2023-07-22T05:45:01;3.92;;;1.58;;
69991;SDS011;57332;51.320;-0.580;2023-07-22T05:47:29;3.28;;;1.42;;
69991;SDS011;57332;51.320;-0.580;2023-07-22T05:49:56;5.40;;;1.70;;
69991;SDS011;57332;51.320;-0.580;2023-07-22T05:52:23;4.40;;;1.45;;
69991;SDS011;57332;51.320;-0.580;2023-07-22T05:54:50;3.72;;;1.52;;
69991;SDS011;57332;51.320;-0.580;2023-07-22T05:57:17;4.30;;;1.70;;
69991;SDS011;57332;51.320;-0.580;2023-07-22T05:59:44;2.63;;;1.60;;
69991;SDS011;57332;51.320;-0.580;2023-07-22T06:02:11;3.22;;;1.48;;
69991;SDS011;57332;51.320;-0.580;2023-07-22T06:04:38;3.45;;;1.63;;
69991;SDS011;57332;51.320;-0.580;2023-07-22T06:07:05;4.15;;;1.73;;
69991;SDS011;57332;51.320;-0.580;2023-07-22T06:09:32;3.08;;;1.63;;
69991;SDS011;57332;51.320;-0.580;2023-07-22T06:11:59;5.78;;;1.80;;
69991;SDS011;57332;51.320;-0.580;2023-07-22T06:14:26;4.55;;;1.88;;
69991;SDS011;57332;51.320;-0.580;2023-07-22T06:16:53;4.18;;;1.60;;
69991;SDS011;57332;51.320;-0.580;2023-07-22T06:19:20;3.15;;;1.70;;
69991;SDS011;57332;51.320;-0.580;2023-07-22T06:21:47;3.58;;;1.30;;
69991;SDS011;57332;51.320;-0.580;2023-07-22T06:24:14;3.88;;;1.85;;
69991;SDS011;57332;51.320;-0.580;2023-07-22T06:26:41;3.65;;;1.50;;
69991;SDS011;57332;51.320;-0.580;2023-07-22T06:29:08;3.75;;;1.70;;
69991;SDS011;57332;51.320;-0.580;2023-07-22T06:31:38;4.00;;;1.67;;
69991;SDS011;57332;51.320;-0.580;2023-07-22T06:34:05;2.75;;;1.38;;
69991;SDS011;57332;51.320;-0.580;2023-07-22T06:36:32;3.90;;;1.63;;
69991;SDS011;57332;51.320;-0.580;2023-07-22T06:38:59;4.70;;;1.55;;
69991;SDS011;57332;51.320;-0.580;2023-07-22T06:41:26;4.15;;;1.63;;
69991;SDS011;57332;51.320;-0.580;2023-07-22T06:43:52;2.85;;;1.20;;
69991;SDS011;57332;51.320;-0.580;2023-07-22T06:46:19;5.20;;;1.75;;
69991;SDS011;57332;51.320;-0.580;2023-07-22T06:48:47;3.92;;;1.65;;
69991;SDS011;57332;51.320;-0.580;2023-07-22T06:51:17;4.25;;;1.50;;
69991;SDS011;57332;51.320;-0.580;2023-07-22T06:53:45;3.80;;;1.70;;
69991;SDS011;57332;51.320;-0.580;2023-07-22T06:56:12;2.95;;;1.42;;
69991;SDS011;57332;51.320;-0.580;2023-07-22T06:58:39;3.95;;;1.60;;
69991;SDS011;57332;51.320;-0.580;2023-07-22T07:01:06;4.47;;;1.30;;
69991;SDS011;57332;51.320;-0.580;2023-07-22T07:03:33;4.75;;;1.40;;
69991;SDS011;57332;51.320;-0.580;2023-07-22T07:06:00;5.18;;;1.70;;
69991;SDS011;57332;51.320;-0.580;2023-07-22T07:08:31;3.45;;;1.83;;
69991;SDS011;57332;51.320;-0.580;2023-07-22T07:10:58;2.90;;;1.40;;
69991;SDS011;57332;51.320;-0.580;2023-07-22T07:13:25;3.30;;;1.50;;
69991;SDS011;57332;51.320;-0.580;2023-07-22T07:15:54;4.43;;;1.63;;
69991;SDS011;57332;51.320;-0.580;2023-07-22T07:18:21;3.30;;;1.38;;
69991;SDS011;57332;51.320;-0.580;2023-07-22T07:20:49;4.68;;;1.92;;
69991;SDS011;57332;51.320;-0.580;2023-07-22T07:23:17;3.55;;;1.67;;
69991;SDS011;57332;51.320;-0.580;2023-07-22T07:25:44;3.50;;;1.25;;
69991;SDS011;57332;51.320;-0.580;2023-07-22T07:28:11;3.20;;;1.60;;
69991;SDS011;57332;51.320;-0.580;2023-07-22T07:30:39;2.47;;;1.40;;
69991;SDS011;57332;51.320;-0.580;2023-07-22T07:33:06;3.75;;;1.70;;
69991;SDS011;57332;51.320;-0.580;2023-07-22T07:35:33;4.00;;;1.40;;
69991;SDS011;57332;51.320;-0.580;2023-07-22T07:38:00;4.95;;;1.40;;
69991;SDS011;57332;51.320;-0.580;2023-07-22T07:40:27;4.57;;;1.70;;
69991;SDS011;57332;51.320;-0.580;2023-07-22T07:42:54;4.95;;;1.50;;
69991;SDS011;57332;51.320;-0.580;2023-07-22T07:45:22;4.85;;;1.38;;
69991;SDS011;57332;51.320;-0.580;2023-07-22T07:47:49;2.38;;;1.30;;
69991;SDS011;57332;51.320;-0.580;2023-07-22T07:50:16;5.15;;;1.70;;
69991;SDS011;57332;51.320;-0.580;2023-07-22T07:52:43;4.18;;;1.52;;
69991;SDS011;57332;51.320;-0.580;2023-07-22T07:55:10;4.25;;;1.65;;
69991;SDS011;57332;51.320;-0.580;2023-07-22T07:57:37;3.08;;;1.40;;
69991;SDS011;57332;51.320;-0.580;2023-07-22T08:00:04;3.47;;;1.65;;
69991;SDS011;57332;51.320;-0.580;2023-07-22T08:02:31;3.88;;;1.52;;
69991;SDS011;57332;51.320;-0.580;2023-07-22T08:04:58;4.00;;;1.45;;
69991;SDS011;57332;51.320;-0.580;2023-07-22T08:07:25;5.13;;;1.73;;
69991;SDS011;57332;51.320;-0.580;2023-07-22T08:09:52;4.80;;;1.60;;
69991;SDS011;57332;51.320;-0.580;2023-07-22T08:12:19;3.40;;;1.40;;
69991;SDS011;57332;51.320;-0.580;2023-07-22T08:14:46;3.88;;;1.60;;
69991;SDS011;57332;51.320;-0.580;2023-07-22T08:17:13;4.72;;;1.50;;
69991;SDS011;57332;51.320;-0.580;2023-07-22T08:19:40;2.97;;;1.40;;
69991;SDS011;57332;51.320;-0.580;2023-07-22T08:22:07;3.60;;;1.73;;
69991;SDS011;57332;51.320;-0.580;2023-07-22T08:24:34;2.90;;;1.30;;
69991;SDS011;57332;51.320;-0.580;2023-07-22T08:27:01;5.15;;;1.60;;
69991;SDS011;57332;51.320;-0.580;2023-07-22T08:29:28;4.70;;;1.70;;
69991;SDS011;57332;51.320;-0.580;2023-07-22T08:31:55;3.42;;;1.45;;
69991;SDS011;57332;51.320;-0.580;2023-07-22T08:34:22;4.22;;;1.75;;
69991;SDS011;57332;51.320;-0.580;2023-07-22T08:36:49;3.42;;;1.50;;
69991;SDS011;57332;51.320;-0.580;2023-07-22T08:39:16;5.80;;;1.80;;
69991;SDS011;57332;51.320;-0.580;2023-07-22T08:41:43;6.32;;;1.83;;
69991;SDS011;57332;51.320;-0.580;2023-07-22T08:44:12;3.50;;;1.92;;
69991;SDS011;57332;51.320;-0.580;2023-07-22T08:46:40;4.55;;;1.92;;
69991;SDS011;57332;51.320;-0.580;2023-07-22T08:49:08;6.10;;;2.53;;
69991;SDS011;57332;51.320;-0.580;2023-07-22T08:51:35;4.20;;;2.10;;
69991;SDS011;57332;51.320;-0.580;2023-07-22T08:54:04;4.75;;;2.10;;
69991;SDS011;57332;51.320;-0.580;2023-07-22T08:56:38;4.53;;;1.73;;
69991;SDS011;57332;51.320;-0.580;2023-07-22T08:59:05;4.07;;;1.63;;
69991;SDS011;57332;51.320;-0.580;2023-07-22T09:01:33;4.40;;;1.77;;
69991;SDS011;57332;51.320;-0.580;2023-07-22T09:04:01;4.05;;;1.63;;
69991;SDS011;57332;51.320;-0.580;2023-07-22T09:06:28;4.35;;;2.05;;
69991;SDS011;57332;51.320;-0.580;2023-07-22T09:08:55;5.28;;;2.10;;
69991;SDS011;57332;51.320;-0.580;2023-07-22T09:11:23;4.53;;;2.13;;
69991;SDS011;57332;51.320;-0.580;2023-07-22T09:13:50;4.53;;;1.88;;
69991;SDS011;57332;51.320;-0.580;2023-07-22T09:16:19;4.32;;;2.10;;
69991;SDS011;57332;51.320;-0.580;2023-07-22T09:18:46;5.65;;;2.08;;
69991;SDS011;57332;51.320;-0.580;2023-07-22T09:21:13;4.82;;;2.05;;
69991;SDS011;57332;51.320;-0.580;2023-07-22T09:23:40;4.38;;;1.98;;
69991;SDS011;57332;51.320;-0.580;2023-07-22T09:26:08;3.90;;;1.92;;
69991;SDS011;57332;51.320;-0.580;2023-07-22T09:29:09;4.65;;;1.83;;
69991;SDS011;57332;51.320;-0.580;2023-07-22T09:31:28;4.60;;;1.85;;
69991;SDS011;57332;51.320;-0.580;2023-07-22T09:33:55;4.32;;;2.20;;
69991;SDS011;57332;51.320;-0.580;2023-07-22T09:36:48;4.50;;;2.03;;
69991;SDS011;57332;51.320;-0.580;2023-07-22T09:39:15;6.05;;;2.15;;
69991;SDS011;57332;51.320;-0.580;2023-07-22T09:41:42;4.60;;;2.33;;
69991;SDS011;57332;51.320;-0.580;2023-07-22T09:44:09;4.38;;;2.17;;
69991;SDS011;57332;51.320;-0.580;2023-07-22T09:46:37;4.80;;;1.88;;
69991;SDS011;57332;51.320;-0.580;2023-07-22T09:49:07;6.57;;;2.40;;
69991;SDS011;57332;51.320;-0.580;2023-07-22T09:51:35;3.85;;;1.70;;
69991;SDS011;57332;51.320;-0.580;2023-07-22T09:54:19;4.55;;;2.30;;
69991;SDS011;57332;51.320;-0.580;2023-07-22T09:56:46;5.45;;;2.10;;
69991;SDS011;57332;51.320;-0.580;2023-07-22T09:59:13;5.22;;;2.53;;
69991;SDS011;57332;51.320;-0.580;2023-07-22T10:01:40;4.13;;;2.25;;
69991;SDS011;57332;51.320;-0.580;2023-07-22T10:04:08;4.65;;;2.17;;
69991;SDS011;57332;51.320;-0.580;2023-07-22T10:06:35;5.50;;;1.92;;
69991;SDS011;57332;51.320;-0.580;2023-07-22T10:09:03;5.28;;;1.80;;
69991;SDS011;57332;51.320;-0.580;2023-07-22T10:11:34;4.88;;;2.20;;
69991;SDS011;57332;51.320;-0.580;2023-07-22T10:14:02;4.57;;;1.75;;
69991;SDS011;57332;51.320;-0.580;2023-07-22T10:16:29;5.00;;;2.30;;
69991;SDS011;57332;51.320;-0.580;2023-07-22T10:18:56;4.28;;;1.80;;
69991;SDS011;57332;51.320;-0.580;2023-07-22T10:21:24;3.60;;;1.80;;
69991;SDS011;57332;51.320;-0.580;2023-07-22T10:23:51;3.83;;;1.90;;
69991;SDS011;57332;51.320;-0.580;2023-07-22T10:26:19;3.92;;;1.70;;
69991;SDS011;57332;51.320;-0.580;2023-07-22T10:29:06;3.42;;;1.60;;
69991;SDS011;57332;51.320;-0.580;2023-07-22T10:31:33;4.40;;;1.98;;
69991;SDS011;57332;51.320;-0.580;2023-07-22T10:34:00;3.65;;;1.63;;
69991;SDS011;57332;51.320;-0.580;2023-07-22T10:36:28;3.15;;;1.73;;
69991;SDS011;57332;51.320;-0.580;2023-07-22T10:38:56;5.30;;;1.90;;
69991;SDS011;57332;51.320;-0.580;2023-07-22T10:41:25;4.53;;;1.70;;
69991;SDS011;57332;51.320;-0.580;2023-07-22T10:43:56;3.20;;;1.38;;
69991;SDS011;57332;51.320;-0.580;2023-07-22T10:48:50;5.18;;;1.90;;
69991;SDS011;57332;51.320;-0.580;2023-07-22T10:51:17;3.47;;;1.60;;
69991;SDS011;57332;51.320;-0.580;2023-07-22T10:53:46;4.55;;;1.63;;
69991;SDS011;57332;51.320;-0.580;2023-07-22T10:56:20;7.03;;;1.67;;
69991;SDS011;57332;51.320;-0.580;2023-07-22T11:06:35;6.00;;;2.35;;
69991;SDS011;57332;51.320;-0.580;2023-07-22T11:09:02;5.97;;;1.98;;
69991;SDS011;57332;51.320;-0.580;2023-07-22T11:11:34;4.78;;;2.22;;
69991;SDS011;57332;51.320;-0.580;2023-07-22T11:14:17;4.82;;;2.05;;
69991;SDS011;57332;51.320;-0.580;2023-07-22T11:19:13;5.28;;;2.08;;
69991;SDS011;57332;51.320;-0.580;2023-07-22T11:21:40;5.82;;;2.50;;
69991;SDS011;57332;51.320;-0.580;2023-07-22T11:24:07;6.50;;;2.88;;
69991;SDS011;57332;51.320;-0.580;2023-07-22T11:26:34;5.13;;;2.38;;
69991;SDS011;57332;51.320;-0.580;2023-07-22T11:29:02;7.65;;;2.53;;
69991;SDS011;57332;51.320;-0.580;2023-07-22T11:33:59;7.47;;;2.78;;
69991;SDS011;57332;51.320;-0.580;2023-07-22T11:36:26;7.47;;;2.92;;
69991;SDS011;57332;51.320;-0.580;2023-07-22T11:38:54;6.93;;;2.72;;
69991;SDS011;57332;51.320;-0.580;2023-07-22T11:41:27;7.03;;;3.28;;
69991;SDS011;57332;51.320;-0.580;2023-07-22T11:43:56;8.90;;;3.10;;
69991;SDS011;57332;51.320;-0.580;2023-07-22T11:46:23;7.82;;;2.75;;
69991;SDS011;57332;51.320;-0.580;2023-07-22T11:48:50;5.95;;;2.80;;
69991;SDS011;57332;51.320;-0.580;2023-07-22T11:51:19;7.47;;;3.10;;
69991;SDS011;57332;51.320;-0.580;2023-07-22T11:53:47;7.07;;;3.03;;
69991;SDS011;57332;51.320;-0.580;2023-07-22T11:56:21;8.57;;;3.13;;
69991;SDS011;57332;51.320;-0.580;2023-07-22T11:58:52;8.40;;;3.05;;
69991;SDS011;57332;51.320;-0.580;2023-07-22T12:01:19;8.35;;;3.33;;
69991;SDS011;57332;51.320;-0.580;2023-07-22T12:03:46;8.07;;;3.65;;
69991;SDS011;57332;51.320;-0.580;2023-07-22T12:06:13;8.52;;;3.47;;
69991;SDS011;57332;51.320;-0.580;2023-07-22T12:08:47;7.90;;;3.50;;
69991;SDS011;57332;51.320;-0.580;2023-07-22T12:11:17;7.13;;;3.17;;
69991;SDS011;57332;51.320;-0.580;2023-07-22T12:13:45;5.95;;;2.90;;
69991;SDS011;57332;51.320;-0.580;2023-07-22T12:16:13;6.60;;;3.13;;
69991;SDS011;57332;51.320;-0.580;2023-07-22T12:18:41;9.32;;;3.95;;
69991;SDS011;57332;51.320;-0.580;2023-07-22T12:21:08;8.05;;;3.00;;
69991;SDS011;57332;51.320;-0.580;2023-07-22T12:23:36;9.02;;;2.97;;
69991;SDS011;57332;51.320;-0.580;2023-07-22T12:26:04;8.80;;;4.07;;
69991;SDS011;57332;51.320;-0.580;2023-07-22T12:28:31;10.27;;;4.65;;
69991;SDS011;57332;51.320;-0.580;2023-07-22T12:30:58;10.30;;;4.00;;
69991;SDS011;57332;51.320;-0.580;2023-07-22T12:33:26;12.50;;;3.95;;
69991;SDS011;57332;51.320;-0.580;2023-07-22T12:35:54;9.85;;;3.28;;
69991;SDS011;57332;51.320;-0.580;2023-07-22T12:38:21;10.35;;;4.10;;
69991;SDS011;57332;51.320;-0.580;2023-07-22T12:40:48;12.00;;;3.75;;
69991;SDS011;57332;51.320;-0.580;2023-07-22T12:43:15;10.00;;;3.25;;
69991;SDS011;57332;51.320;-0.580;2023-07-22T12:45:41;10.68;;;4.30;;
69991;SDS011;57332;51.320;-0.580;2023-07-22T12:48:09;10.23;;;4.28;;
69991;SDS011;57332;51.320;-0.580;2023-07-22T12:50:36;9.82;;;3.75;;
69991;SDS011;57332;51.320;-0.580;2023-07-22T12:53:03;13.30;;;4.53;;
69991;SDS011;57332;51.320;-0.580;2023-07-22T12:55:30;12.57;;;4.53;;
69991;SDS011;57332;51.320;-0.580;2023-07-22T12:57:57;10.77;;;3.75;;
69991;SDS011;57332;51.320;-0.580;2023-07-22T13:00:24;11.23;;;4.65;;
69991;SDS011;57332;51.320;-0.580;2023-07-22T13:02:51;9.27;;;3.95;;
69991;SDS011;57332;51.320;-0.580;2023-07-22T13:05:18;10.82;;;4.07;;
69991;SDS011;57332;51.320;-0.580;2023-07-22T13:07:45;9.65;;;3.80;;
69991;SDS011;57332;51.320;-0.580;2023-07-22T13:10:12;9.43;;;4.28;;
69991;SDS011;57332;51.320;-0.580;2023-07-22T13:12:43;12.10;;;4.70;;
69991;SDS011;57332;51.320;-0.580;2023-07-22T13:15:10;10.95;;;4.00;;
69991;SDS011;57332;51.320;-0.580;2023-07-22T13:17:37;11.82;;;4.53;;
69991;SDS011;57332;51.320;-0.580;2023-07-22T13:20:04;9.52;;;3.50;;
69991;SDS011;57332;51.320;-0.580;2023-07-22T13:22:33;9.02;;;3.72;;
69991;SDS011;57332;51.320;-0.580;2023-07-22T13:25:00;10.43;;;3.90;;
69991;SDS011;57332;51.320;-0.580;2023-07-22T13:27:27;12.27;;;4.25;;
69991;SDS011;57332;51.320;-0.580;2023-07-22T13:29:54;11.68;;;3.60;;
69991;SDS011;57332;51.320;-0.580;2023-07-22T13:32:21;9.18;;;3.33;;
69991;SDS011;57332;51.320;-0.580;2023-07-22T13:34:48;10.77;;;3.75;;
69991;SDS011;57332;51.320;-0.580;2023-07-22T13:37:15;13.00;;;4.38;;
69991;SDS011;57332;51.320;-0.580;2023-07-22T13:39:42;9.70;;;3.90;;
69991;SDS011;57332;51.320;-0.580;2023-07-22T13:42:09;11.18;;;4.07;;
69991;SDS011;57332;51.320;-0.580;2023-07-22T13:44:36;9.18;;;3.55;;
69991;SDS011;57332;51.320;-0.580;2023-07-22T13:47:06;11.35;;;3.83;;
69991;SDS011;57332;51.320;-0.580;2023-07-22T13:49:33;11.13;;;4.05;;
69991;SDS011;57332;51.320;-0.580;2023-07-22T13:52:00;12.20;;;4.50;;
69991;SDS011;57332;51.320;-0.580;2023-07-22T13:54:26;11.27;;;3.97;;
69991;SDS011;57332;51.320;-0.580;2023-07-22T13:56:53;10.48;;;4.25;;
69991;SDS011;57332;51.320;-0.580;2023-07-22T13:59:20;12.27;;;4.30;;
69991;SDS011;57332;51.320;-0.580;2023-07-22T14:01:47;12.05;;;4.43;;
69991;SDS011;57332;51.320;-0.580;2023-07-22T14:04:14;10.30;;;4.13;;
69991;SDS011;57332;51.320;-0.580;2023-07-22T14:06:41;10.55;;;3.90;;
69991;SDS011;57332;51.320;-0.580;2023-07-22T14:09:08;12.00;;;4.47;;
69991;SDS011;57332;51.320;-0.580;2023-07-22T14:11:35;11.85;;;4.50;;
69991;SDS011;57332;51.320;-0.580;2023-07-22T14:14:01;12.00;;;4.28;;
69991;SDS011;57332;51.320;-0.580;2023-07-22T14:16:28;12.88;;;4.63;;
69991;SDS011;57332;51.320;-0.580;2023-07-22T14:18:55;12.80;;;4.47;;
69991;SDS011;57332;51.320;-0.580;2023-07-22T14:21:22;12.45;;;4.65;;
69991;SDS011;57332;51.320;-0.580;2023-07-22T14:23:49;15.65;;;4.55;;
69991;SDS011;57332;51.320;-0.580;2023-07-22T14:26:16;12.02;;;4.32;;
69991;SDS011;57332;51.320;-0.580;2023-07-22T14:28:43;9.90;;;3.92;;
69991;SDS011;57332;51.320;-0.580;2023-07-22T14:31:10;13.13;;;4.10;;
69991;SDS011;57332;51.320;-0.580;2023-07-22T14:33:37;14.82;;;4.72;;
69991;SDS011;57332;51.320;-0.580;2023-07-22T14:36:04;12.00;;;4.22;;
69991;SDS011;57332;51.320;-0.580;2023-07-22T14:38:31;11.32;;;4.03;;
69991;SDS011;57332;51.320;-0.580;2023-07-22T14:40:58;13.70;;;4.00;;
69991;SDS011;57332;51.320;-0.580;2023-07-22T14:43:25;12.82;;;4.32;;
69991;SDS011;57332;51.320;-0.580;2023-07-22T14:45:53;11.65;;;4.35;;
69991;SDS011;57332;51.320;-0.580;2023-07-22T14:48:21;15.63;;;5.05;;
69991;SDS011;57332;51.320;-0.580;2023-07-22T14:50:48;15.20;;;4.95;;
69991;SDS011;57332;51.320;-0.580;2023-07-22T14:53:14;13.35;;;4.47;;